sensor_id;sensor_type;location;lat;lon;timestamp;temperature;humidity
40808;DHT22;26523;52.504;13.498;2022-07-06T00:01:15;17.00;79.50
40808;DHT22;26523;52.504;13.498;2022-07-06T00:03:41;17.00;79.50
40808;DHT22;26523;52.504;13.498;2022-07-06T00:06:07;17.00;80.00
40808;DHT22;26523;52.504;13.498;2022-07-06T00:08:33;17.00;80.00
40808;DHT22;26523;52.504;13.498;2022-07-06T00:10:59;17.00;80.40
40808;DHT22;26523;52.504;13.498;2022-07-06T00:13:24;16.90;80.70
40808;DHT22;26523;52.504;13.498;2022-07-06T00:15:50;16.90;81.00
40808;DHT22;26523;52.504;13.498;2022-07-06T00:18:16;16.80;81.20
40808;DHT22;26523;52.504;13.498;2022-07-06T00:20:41;16.90;81.20
40808;DHT22;26523;52.504;13.498;2022-07-06T00:23:07;16.90;81.50
40808;DHT22;26523;52.504;13.498;2022-07-06T00:25:32;16.90;81.60
40808;DHT22;26523;52.504;13.498;2022-07-06T00:27:58;16.80;81.60
40808;DHT22;26523;52.504;13.498;2022-07-06T00:30:24;16.70;82.40
40808;DHT22;26523;52.504;13.498;2022-07-06T00:32:49;16.60;82.70
40808;DHT22;26523;52.504;13.498;2022-07-06T00:35:15;16.50;82.90
40808;DHT22;26523;52.504;13.498;2022-07-06T00:37:40;16.60;83.70
40808;DHT22;26523;52.504;13.498;2022-07-06T00:40:06;16.60;83.50
40808;DHT22;26523;52.504;13.498;2022-07-06T00:42:43;16.50;84.00
40808;DHT22;26523;52.504;13.498;2022-07-06T00:45:10;16.50;84.00
40808;DHT22;26523;52.504;13.498;2022-07-06T00:47:36;16.50;84.30
40808;DHT22;26523;52.504;13.498;2022-07-06T00:50:04;16.50;84.40
40808;DHT22;26523;52.504;13.498;2022-07-06T00:53:00;16.50;84.80
40808;DHT22;26523;52.504;13.498;2022-07-06T00:55:29;16.60;85.50
40808;DHT22;26523;52.504;13.498;2022-07-06T00:57:55;16.60;85.70
40808;DHT22;26523;52.504;13.498;2022-07-06T01:00:25;16.50;85.80
40808;DHT22;26523;52.504;13.498;2022-07-06T01:02:51;16.60;85.90
40808;DHT22;26523;52.504;13.498;2022-07-06T01:05:17;16.50;86.20
40808;DHT22;26523;52.504;13.498;2022-07-06T01:07:45;16.50;86.90
40808;DHT22;26523;52.504;13.498;2022-07-06T01:10:14;16.50;87.10
40808;DHT22;26523;52.504;13.498;2022-07-06T01:12:41;16.40;88.50
40808;DHT22;26523;52.504;13.498;2022-07-06T01:15:09;16.40;88.30
40808;DHT22;26523;52.504;13.498;2022-07-06T01:17:36;16.40;89.00
40808;DHT22;26523;52.504;13.498;2022-07-06T01:22:37;16.40;90.40
40808;DHT22;26523;52.504;13.498;2022-07-06T01:25:07;16.30;90.40
40808;DHT22;26523;52.504;13.498;2022-07-06T01:27:35;16.30;90.50
40808;DHT22;26523;52.504;13.498;2022-07-06T01:30:04;16.30;90.70
40808;DHT22;26523;52.504;13.498;2022-07-06T01:32:30;16.30;91.00
40808;DHT22;26523;52.504;13.498;2022-07-06T01:34:56;16.20;91.30
40808;DHT22;26523;52.504;13.498;2022-07-06T01:37:21;16.20;91.70
40808;DHT22;26523;52.504;13.498;2022-07-06T01:39:47;16.20;92.00
40808;DHT22;26523;52.504;13.498;2022-07-06T01:42:12;16.20;92.10
40808;DHT22;26523;52.504;13.498;2022-07-06T01:44:38;16.10;92.50
40808;DHT22;26523;52.504;13.498;2022-07-06T01:47:03;16.10;92.90
40808;DHT22;26523;52.504;13.498;2022-07-06T01:49:29;16.10;93.10
40808;DHT22;26523;52.504;13.498;2022-07-06T01:51:54;16.10;93.30
40808;DHT22;26523;52.504;13.498;2022-07-06T01:54:20;16.20;93.40
40808;DHT22;26523;52.504;13.498;2022-07-06T01:56:46;16.40;93.30
40808;DHT22;26523;52.504;13.498;2022-07-06T01:59:11;16.40;93.20
40808;DHT22;26523;52.504;13.498;2022-07-06T02:01:37;16.60;92.80
40808;DHT22;26523;52.504;13.498;2022-07-06T02:04:02;16.60;92.50
40808;DHT22;26523;52.504;13.498;2022-07-06T02:06:28;16.60;92.30
40808;DHT22;26523;52.504;13.498;2022-07-06T02:08:53;16.60;92.40
40808;DHT22;26523;52.504;13.498;2022-07-06T02:11:19;16.70;92.40
40808;DHT22;26523;52.504;13.498;2022-07-06T02:13:45;16.70;92.00
40808;DHT22;26523;52.504;13.498;2022-07-06T02:16:11;16.70;91.70
40808;DHT22;26523;52.504;13.498;2022-07-06T02:18:37;16.80;91.70
40808;DHT22;26523;52.504;13.498;2022-07-06T02:21:04;16.90;91.50
40808;DHT22;26523;52.504;13.498;2022-07-06T02:23:29;16.90;91.30
40808;DHT22;26523;52.504;13.498;2022-07-06T02:25:55;17.00;91.20
40808;DHT22;26523;52.504;13.498;2022-07-06T02:28:21;17.00;91.60
40808;DHT22;26523;52.504;13.498;2022-07-06T02:30:46;17.00;92.40
40808;DHT22;26523;52.504;13.498;2022-07-06T02:33:13;17.00;94.50
40808;DHT22;26523;52.504;13.498;2022-07-06T02:35:38;17.00;94.80
40808;DHT22;26523;52.504;13.498;2022-07-06T02:38:08;17.00;95.60
40808;DHT22;26523;52.504;13.498;2022-07-06T02:40:34;16.90;96.10
40808;DHT22;26523;52.504;13.498;2022-07-06T02:43:00;17.00;96.80
40808;DHT22;26523;52.504;13.498;2022-07-06T02:45:26;17.00;97.30
40808;DHT22;26523;52.504;13.498;2022-07-06T02:47:51;16.90;98.30
40808;DHT22;26523;52.504;13.498;2022-07-06T02:50:18;16.90;98.20
40808;DHT22;26523;52.504;13.498;2022-07-06T02:52:44;16.90;99.30
40808;DHT22;26523;52.504;13.498;2022-07-06T02:55:09;16.90;99.90
40808;DHT22;26523;52.504;13.498;2022-07-06T02:57:35;16.70;99.90
40808;DHT22;26523;52.504;13.498;2022-07-06T03:00:00;16.40;99.90
40808;DHT22;26523;52.504;13.498;2022-07-06T03:02:26;16.10;99.90
40808;DHT22;26523;52.504;13.498;2022-07-06T03:04:52;15.80;99.90
40808;DHT22;26523;52.504;13.498;2022-07-06T03:07:18;15.70;99.90
40808;DHT22;26523;52.504;13.498;2022-07-06T03:09:43;15.60;99.90
40808;DHT22;26523;52.504;13.498;2022-07-06T03:12:09;15.60;99.90
40808;DHT22;26523;52.504;13.498;2022-07-06T03:14:35;15.50;99.90
40808;DHT22;26523;52.504;13.498;2022-07-06T03:17:00;15.50;99.90
40808;DHT22;26523;52.504;13.498;2022-07-06T03:19:26;15.50;99.90
40808;DHT22;26523;52.504;13.498;2022-07-06T03:21:51;15.40;99.90
40808;DHT22;26523;52.504;13.498;2022-07-06T03:24:17;15.40;99.90
40808;DHT22;26523;52.504;13.498;2022-07-06T03:26:43;15.50;99.90
40808;DHT22;26523;52.504;13.498;2022-07-06T03:29:08;15.50;99.90
40808;DHT22;26523;52.504;13.498;2022-07-06T03:31:34;15.60;99.90
40808;DHT22;26523;52.504;13.498;2022-07-06T03:34:00;15.50;99.90
40808;DHT22;26523;52.504;13.498;2022-07-06T03:36:26;15.60;99.90
40808;DHT22;26523;52.504;13.498;2022-07-06T03:38:52;15.70;99.90
40808;DHT22;26523;52.504;13.498;2022-07-06T03:41:17;15.80;99.90
40808;DHT22;26523;52.504;13.498;2022-07-06T03:43:43;15.70;99.90
40808;DHT22;26523;52.504;13.498;2022-07-06T03:46:08;15.70;99.90
40808;DHT22;26523;52.504;13.498;2022-07-06T03:48:34;15.70;99.90
40808;DHT22;26523;52.504;13.498;2022-07-06T03:51:00;15.80;99.90
40808;DHT22;26523;52.504;13.498;2022-07-06T03:53:25;15.80;99.90
40808;DHT22;26523;52.504;13.498;2022-07-06T03:55:52;15.80;99.90
40808;DHT22;26523;52.504;13.498;2022-07-06T03:58:36;15.80;99.90
40808;DHT22;26523;52.504;13.498;2022-07-06T04:01:02;15.90;99.90
40808;DHT22;26523;52.504;13.498;2022-07-06T04:03:27;16.00;99.90
40808;DHT22;26523;52.504;13.498;2022-07-06T04:05:53;16.10;99.90
40808;DHT22;26523;52.504;13.498;2022-07-06T04:08:19;16.10;99.90
40808;DHT22;26523;52.504;13.498;2022-07-06T04:10:45;16.20;99.90
40808;DHT22;26523;52.504;13.498;2022-07-06T04:13:11;16.30;99.90
40808;DHT22;26523;52.504;13.498;2022-07-06T04:15:36;16.40;99.90
40808;DHT22;26523;52.504;13.498;2022-07-06T04:18:03;16.50;99.90
40808;DHT22;26523;52.504;13.498;2022-07-06T04:20:29;16.70;99.90
40808;DHT22;26523;52.504;13.498;2022-07-06T04:22:54;16.90;99.90
40808;DHT22;26523;52.504;13.498;2022-07-06T04:25:20;17.10;99.90
40808;DHT22;26523;52.504;13.498;2022-07-06T04:27:46;17.30;99.90
40808;DHT22;26523;52.504;13.498;2022-07-06T04:30:11;17.30;99.90
40808;DHT22;26523;52.504;13.498;2022-07-06T04:32:37;17.50;99.90
40808;DHT22;26523;52.504;13.498;2022-07-06T04:35:05;17.50;99.90
40808;DHT22;26523;52.504;13.498;2022-07-06T04:37:31;17.70;99.90
40808;DHT22;26523;52.504;13.498;2022-07-06T04:39:56;17.80;99.90
40808;DHT22;26523;52.504;13.498;2022-07-06T04:42:22;17.80;99.90
40808;DHT22;26523;52.504;13.498;2022-07-06T04:44:48;17.80;99.90
40808;DHT22;26523;52.504;13.498;2022-07-06T04:47:14;17.70;99.90
40808;DHT22;26523;52.504;13.498;2022-07-06T04:49:40;17.60;99.90
40808;DHT22;26523;52.504;13.498;2022-07-06T04:52:06;17.70;99.90
40808;DHT22;26523;52.504;13.498;2022-07-06T04:54:31;17.60;99.90
40808;DHT22;26523;52.504;13.498;2022-07-06T04:56:57;17.60;99.90
40808;DHT22;26523;52.504;13.498;2022-07-06T04:59:23;17.70;99.90
40808;DHT22;26523;52.504;13.498;2022-07-06T05:01:49;17.90;99.90
40808;DHT22;26523;52.504;13.498;2022-07-06T05:04:14;18.10;99.90
40808;DHT22;26523;52.504;13.498;2022-07-06T05:06:42;18.30;99.90
40808;DHT22;26523;52.504;13.498;2022-07-06T05:09:07;18.60;99.90
40808;DHT22;26523;52.504;13.498;2022-07-06T05:11:33;18.90;99.90
40808;DHT22;26523;52.504;13.498;2022-07-06T05:13:59;19.10;99.90
40808;DHT22;26523;52.504;13.498;2022-07-06T05:16:24;19.30;99.90
40808;DHT22;26523;52.504;13.498;2022-07-06T05:18:50;19.80;99.90
40808;DHT22;26523;52.504;13.498;2022-07-06T05:21:15;20.90;99.90
40808;DHT22;26523;52.504;13.498;2022-07-06T05:23:41;21.90;99.40
40808;DHT22;26523;52.504;13.498;2022-07-06T05:26:07;22.50;96.90
40808;DHT22;26523;52.504;13.498;2022-07-06T05:28:32;23.90;93.00
40808;DHT22;26523;52.504;13.498;2022-07-06T05:30:59;25.70;90.00
40808;DHT22;26523;52.504;13.498;2022-07-06T05:33:24;27.10;81.60
40808;DHT22;26523;52.504;13.498;2022-07-06T05:35:50;28.30;72.90
40808;DHT22;26523;52.504;13.498;2022-07-06T05:38:15;28.90;69.20
40808;DHT22;26523;52.504;13.498;2022-07-06T05:40:41;29.20;64.80
40808;DHT22;26523;52.504;13.498;2022-07-06T05:43:07;30.00;65.50
40808;DHT22;26523;52.504;13.498;2022-07-06T05:45:32;30.80;61.20
40808;DHT22;26523;52.504;13.498;2022-07-06T05:47:58;31.20;59.90
40808;DHT22;26523;52.504;13.498;2022-07-06T05:50:43;31.50;58.50
40808;DHT22;26523;52.504;13.498;2022-07-06T05:53:09;31.50;57.60
40808;DHT22;26523;52.504;13.498;2022-07-06T05:55:35;31.70;57.00
40808;DHT22;26523;52.504;13.498;2022-07-06T05:58:00;31.00;57.40
40808;DHT22;26523;52.504;13.498;2022-07-06T06:00:27;31.30;56.00
40808;DHT22;26523;52.504;13.498;2022-07-06T06:02:53;32.00;55.00
40808;DHT22;26523;52.504;13.498;2022-07-06T06:05:20;32.90;55.10
40808;DHT22;26523;52.504;13.498;2022-07-06T06:07:46;33.60;53.50
40808;DHT22;26523;52.504;13.498;2022-07-06T06:10:14;33.80;53.30
40808;DHT22;26523;52.504;13.498;2022-07-06T06:12:41;34.60;53.90
40808;DHT22;26523;52.504;13.498;2022-07-06T06:15:08;35.00;51.70
40808;DHT22;26523;52.504;13.498;2022-07-06T06:17:34;35.60;51.00
40808;DHT22;26523;52.504;13.498;2022-07-06T06:20:00;36.30;49.60
40808;DHT22;26523;52.504;13.498;2022-07-06T06:22:26;36.80;48.90
40808;DHT22;26523;52.504;13.498;2022-07-06T06:24:52;36.20;48.90
40808;DHT22;26523;52.504;13.498;2022-07-06T06:27:17;36.60;48.40
40808;DHT22;26523;52.504;13.498;2022-07-06T06:29:44;37.30;48.00
40808;DHT22;26523;52.504;13.498;2022-07-06T06:32:12;35.90;47.50
40808;DHT22;26523;52.504;13.498;2022-07-06T06:34:40;35.00;48.60
40808;DHT22;26523;52.504;13.498;2022-07-06T06:37:06;35.50;47.40
40808;DHT22;26523;52.504;13.498;2022-07-06T06:39:32;36.60;48.20
40808;DHT22;26523;52.504;13.498;2022-07-06T06:41:58;36.60;47.80
40808;DHT22;26523;52.504;13.498;2022-07-06T06:44:24;36.60;47.90
40808;DHT22;26523;52.504;13.498;2022-07-06T06:46:50;36.80;46.40
40808;DHT22;26523;52.504;13.498;2022-07-06T06:49:17;36.70;46.30
40808;DHT22;26523;52.504;13.498;2022-07-06T06:51:43;36.70;46.70
40808;DHT22;26523;52.504;13.498;2022-07-06T06:54:09;37.60;46.10
40808;DHT22;26523;52.504;13.498;2022-07-06T06:56:35;37.60;45.50
40808;DHT22;26523;52.504;13.498;2022-07-06T06:59:00;38.10;45.20
40808;DHT22;26523;52.504;13.498;2022-07-06T07:01:27;37.90;45.20
40808;DHT22;26523;52.504;13.498;2022-07-06T07:03:53;37.60;45.00
40808;DHT22;26523;52.504;13.498;2022-07-06T07:06:20;37.20;45.60
40808;DHT22;26523;52.504;13.498;2022-07-06T07:08:46;37.70;44.50
40808;DHT22;26523;52.504;13.498;2022-07-06T07:11:12;37.20;44.60
40808;DHT22;26523;52.504;13.498;2022-07-06T07:13:37;36.20;45.70
40808;DHT22;26523;52.504;13.498;2022-07-06T07:16:03;35.90;47.10
40808;DHT22;26523;52.504;13.498;2022-07-06T07:18:28;36.20;45.40
40808;DHT22;26523;52.504;13.498;2022-07-06T07:20:54;35.30;45.90
40808;DHT22;26523;52.504;13.498;2022-07-06T07:23:20;33.40;47.10
40808;DHT22;26523;52.504;13.498;2022-07-06T07:25:45;32.90;49.50
40808;DHT22;26523;52.504;13.498;2022-07-06T07:28:11;33.90;47.90
40808;DHT22;26523;52.504;13.498;2022-07-06T07:30:37;35.50;46.80
40808;DHT22;26523;52.504;13.498;2022-07-06T07:33:02;36.50;45.50
40808;DHT22;26523;52.504;13.498;2022-07-06T07:35:28;35.60;46.10
40808;DHT22;26523;52.504;13.498;2022-07-06T07:37:53;33.70;47.90
40808;DHT22;26523;52.504;13.498;2022-07-06T07:40:19;32.50;49.00
40808;DHT22;26523;52.504;13.498;2022-07-06T07:42:45;31.10;49.40
40808;DHT22;26523;52.504;13.498;2022-07-06T07:45:11;30.70;50.20
40808;DHT22;26523;52.504;13.498;2022-07-06T07:47:38;32.10;49.10
40808;DHT22;26523;52.504;13.498;2022-07-06T07:50:04;33.40;46.90
40808;DHT22;26523;52.504;13.498;2022-07-06T07:52:30;34.30;46.20
40808;DHT22;26523;52.504;13.498;2022-07-06T07:54:55;35.90;44.70
40808;DHT22;26523;52.504;13.498;2022-07-06T07:57:21;37.20;43.10
40808;DHT22;26523;52.504;13.498;2022-07-06T07:59:46;37.50;42.50
40808;DHT22;26523;52.504;13.498;2022-07-06T08:02:12;37.80;41.90
40808;DHT22;26523;52.504;13.498;2022-07-06T08:04:38;36.70;42.50
40808;DHT22;26523;52.504;13.498;2022-07-06T08:07:03;35.30;43.90
40808;DHT22;26523;52.504;13.498;2022-07-06T08:09:29;34.40;44.40
40808;DHT22;26523;52.504;13.498;2022-07-06T08:11:55;34.10;43.50
40808;DHT22;26523;52.504;13.498;2022-07-06T08:14:20;32.00;45.90
40808;DHT22;26523;52.504;13.498;2022-07-06T08:16:46;30.90;47.90
40808;DHT22;26523;52.504;13.498;2022-07-06T08:19:11;29.90;49.30
40808;DHT22;26523;52.504;13.498;2022-07-06T08:21:40;29.00;50.50
40808;DHT22;26523;52.504;13.498;2022-07-06T08:24:06;28.50;51.60
40808;DHT22;26523;52.504;13.498;2022-07-06T08:26:32;27.90;52.90
40808;DHT22;26523;52.504;13.498;2022-07-06T08:28:58;27.20;53.80
40808;DHT22;26523;52.504;13.498;2022-07-06T08:31:24;26.60;54.20
40808;DHT22;26523;52.504;13.498;2022-07-06T08:33:50;26.20;54.70
40808;DHT22;26523;52.504;13.498;2022-07-06T08:36:18;26.00;55.50
40808;DHT22;26523;52.504;13.498;2022-07-06T08:38:44;25.70;55.90
40808;DHT22;26523;52.504;13.498;2022-07-06T08:41:10;25.20;56.30
40808;DHT22;26523;52.504;13.498;2022-07-06T08:43:36;24.60;57.70
40808;DHT22;26523;52.504;13.498;2022-07-06T08:46:02;23.90;59.00
40808;DHT22;26523;52.504;13.498;2022-07-06T08:48:34;23.50;60.20
40808;DHT22;26523;52.504;13.498;2022-07-06T08:51:01;23.30;61.30
40808;DHT22;26523;52.504;13.498;2022-07-06T08:53:28;23.60;61.40
40808;DHT22;26523;52.504;13.498;2022-07-06T08:55:54;24.30;59.50
40808;DHT22;26523;52.504;13.498;2022-07-06T08:58:23;24.40;58.90
40808;DHT22;26523;52.504;13.498;2022-07-06T09:00:49;24.30;58.40
40808;DHT22;26523;52.504;13.498;2022-07-06T09:03:14;23.80;58.30
40808;DHT22;26523;52.504;13.498;2022-07-06T09:05:40;23.30;59.00
40808;DHT22;26523;52.504;13.498;2022-07-06T09:08:10;22.80;60.00
40808;DHT22;26523;52.504;13.498;2022-07-06T09:10:36;22.50;60.20
40808;DHT22;26523;52.504;13.498;2022-07-06T09:13:04;22.30;58.80
40808;DHT22;26523;52.504;13.498;2022-07-06T09:15:31;22.20;59.40
40808;DHT22;26523;52.504;13.498;2022-07-06T09:17:56;22.30;59.10
40808;DHT22;26523;52.504;13.498;2022-07-06T09:20:23;22.50;57.90
40808;DHT22;26523;52.504;13.498;2022-07-06T09:22:49;22.80;57.90
40808;DHT22;26523;52.504;13.498;2022-07-06T09:25:15;23.40;57.40
40808;DHT22;26523;52.504;13.498;2022-07-06T09:27:43;23.60;56.40
40808;DHT22;26523;52.504;13.498;2022-07-06T09:30:11;23.60;56.90
40808;DHT22;26523;52.504;13.498;2022-07-06T09:32:46;23.80;56.40
40808;DHT22;26523;52.504;13.498;2022-07-06T09:35:26;24.60;55.50
40808;DHT22;26523;52.504;13.498;2022-07-06T09:38:12;24.90;53.50
40808;DHT22;26523;52.504;13.498;2022-07-06T09:40:43;24.90;53.90
40808;DHT22;26523;52.504;13.498;2022-07-06T09:45:44;25.00;53.30
40808;DHT22;26523;52.504;13.498;2022-07-06T09:48:13;25.00;52.80
40808;DHT22;26523;52.504;13.498;2022-07-06T09:50:44;24.60;52.10
40808;DHT22;26523;52.504;13.498;2022-07-06T09:53:11;24.20;53.10
40808;DHT22;26523;52.504;13.498;2022-07-06T09:55:37;23.60;53.40
40808;DHT22;26523;52.504;13.498;2022-07-06T09:58:03;23.20;54.50
40808;DHT22;26523;52.504;13.498;2022-07-06T10:00:29;22.80;55.80
40808;DHT22;26523;52.504;13.498;2022-07-06T10:02:55;22.50;56.40
40808;DHT22;26523;52.504;13.498;2022-07-06T10:05:22;22.40;57.20
40808;DHT22;26523;52.504;13.498;2022-07-06T10:07:52;22.40;57.10
40808;DHT22;26523;52.504;13.498;2022-07-06T10:10:21;22.50;57.10
40808;DHT22;26523;52.504;13.498;2022-07-06T10:12:49;22.90;57.60
40808;DHT22;26523;52.504;13.498;2022-07-06T10:15:16;23.20;56.50
40808;DHT22;26523;52.504;13.498;2022-07-06T10:17:44;23.50;55.90
40808;DHT22;26523;52.504;13.498;2022-07-06T10:20:11;23.50;55.60
40808;DHT22;26523;52.504;13.498;2022-07-06T10:22:39;23.70;55.70
40808;DHT22;26523;52.504;13.498;2022-07-06T10:25:05;23.50;56.40
40808;DHT22;26523;52.504;13.498;2022-07-06T10:27:32;23.50;56.40
40808;DHT22;26523;52.504;13.498;2022-07-06T10:30:01;23.20;56.30
40808;DHT22;26523;52.504;13.498;2022-07-06T10:32:26;23.10;56.80
40808;DHT22;26523;52.504;13.498;2022-07-06T10:34:52;23.20;57.10
40808;DHT22;26523;52.504;13.498;2022-07-06T10:37:26;23.00;57.40
40808;DHT22;26523;52.504;13.498;2022-07-06T10:39:52;23.20;58.00
40808;DHT22;26523;52.504;13.498;2022-07-06T10:45:10;23.70;57.40
40808;DHT22;26523;52.504;13.498;2022-07-06T10:47:36;23.80;57.60
40808;DHT22;26523;52.504;13.498;2022-07-06T10:50:06;24.00;57.50
40808;DHT22;26523;52.504;13.498;2022-07-06T10:52:51;24.00;57.50
40808;DHT22;26523;52.504;13.498;2022-07-06T10:55:33;24.00;57.40
40808;DHT22;26523;52.504;13.498;2022-07-06T10:58:00;24.00;56.80
40808;DHT22;26523;52.504;13.498;2022-07-06T11:00:26;24.10;56.90
40808;DHT22;26523;52.504;13.498;2022-07-06T11:02:51;24.10;56.20
40808;DHT22;26523;52.504;13.498;2022-07-06T11:05:39;24.00;56.40
40808;DHT22;26523;52.504;13.498;2022-07-06T11:08:05;23.80;55.90
40808;DHT22;26523;52.504;13.498;2022-07-06T11:10:46;23.80;56.30
40808;DHT22;26523;52.504;13.498;2022-07-06T11:13:26;23.80;56.30
40808;DHT22;26523;52.504;13.498;2022-07-06T11:16:01;24.00;56.50
40808;DHT22;26523;52.504;13.498;2022-07-06T11:18:40;24.10;56.60
40808;DHT22;26523;52.504;13.498;2022-07-06T11:21:22;24.30;56.10
40808;DHT22;26523;52.504;13.498;2022-07-06T11:23:50;24.60;55.90
40808;DHT22;26523;52.504;13.498;2022-07-06T11:26:17;24.70;55.40
40808;DHT22;26523;52.504;13.498;2022-07-06T11:28:47;24.60;55.60
40808;DHT22;26523;52.504;13.498;2022-07-06T11:31:14;24.60;55.70
40808;DHT22;26523;52.504;13.498;2022-07-06T11:33:40;24.30;56.10
40808;DHT22;26523;52.504;13.498;2022-07-06T11:38:42;24.00;57.10
40808;DHT22;26523;52.504;13.498;2022-07-06T11:41:07;23.80;57.70
40808;DHT22;26523;52.504;13.498;2022-07-06T11:43:33;23.60;58.50
40808;DHT22;26523;52.504;13.498;2022-07-06T11:45:59;23.50;58.80
40808;DHT22;26523;52.504;13.498;2022-07-06T11:48:24;23.20;59.00
40808;DHT22;26523;52.504;13.498;2022-07-06T11:51:00;23.20;59.30
40808;DHT22;26523;52.504;13.498;2022-07-06T11:53:26;23.30;57.60
40808;DHT22;26523;52.504;13.498;2022-07-06T11:55:52;23.30;57.10
40808;DHT22;26523;52.504;13.498;2022-07-06T11:58:23;23.50;56.70
40808;DHT22;26523;52.504;13.498;2022-07-06T12:01:07;23.60;58.10
40808;DHT22;26523;52.504;13.498;2022-07-06T12:03:34;23.60;56.10
40808;DHT22;26523;52.504;13.498;2022-07-06T12:06:02;23.60;56.20
40808;DHT22;26523;52.504;13.498;2022-07-06T12:08:27;23.70;55.80
40808;DHT22;26523;52.504;13.498;2022-07-06T12:10:53;24.00;55.10
40808;DHT22;26523;52.504;13.498;2022-07-06T12:13:19;24.10;54.90
40808;DHT22;26523;52.504;13.498;2022-07-06T12:15:45;24.00;55.10
40808;DHT22;26523;52.504;13.498;2022-07-06T12:18:11;23.80;55.50
40808;DHT22;26523;52.504;13.498;2022-07-06T12:20:37;23.70;56.30
40808;DHT22;26523;52.504;13.498;2022-07-06T12:23:04;23.60;57.00
40808;DHT22;26523;52.504;13.498;2022-07-06T12:25:34;23.50;57.80
40808;DHT22;26523;52.504;13.498;2022-07-06T12:27:59;23.60;58.00
40808;DHT22;26523;52.504;13.498;2022-07-06T12:30:25;23.80;57.00
40808;DHT22;26523;52.504;13.498;2022-07-06T12:33:14;23.70;57.40
40808;DHT22;26523;52.504;13.498;2022-07-06T12:35:41;23.50;57.50
40808;DHT22;26523;52.504;13.498;2022-07-06T12:38:07;23.30;57.90
40808;DHT22;26523;52.504;13.498;2022-07-06T12:40:35;23.40;57.70
40808;DHT22;26523;52.504;13.498;2022-07-06T12:43:02;23.30;57.80
40808;DHT22;26523;52.504;13.498;2022-07-06T12:45:29;23.30;58.20
40808;DHT22;26523;52.504;13.498;2022-07-06T12:48:05;23.40;58.30
40808;DHT22;26523;52.504;13.498;2022-07-06T12:50:36;23.60;58.10
40808;DHT22;26523;52.504;13.498;2022-07-06T12:53:04;23.50;57.60
40808;DHT22;26523;52.504;13.498;2022-07-06T12:55:30;23.50;57.70
40808;DHT22;26523;52.504;13.498;2022-07-06T12:57:57;23.60;57.80
40808;DHT22;26523;52.504;13.498;2022-07-06T13:00:23;23.80;57.40
40808;DHT22;26523;52.504;13.498;2022-07-06T13:02:52;23.80;57.00
40808;DHT22;26523;52.504;13.498;2022-07-06T13:05:26;23.60;57.30
40808;DHT22;26523;52.504;13.498;2022-07-06T13:07:56;23.70;57.60
40808;DHT22;26523;52.504;13.498;2022-07-06T13:10:23;23.80;57.50
40808;DHT22;26523;52.504;13.498;2022-07-06T13:12:49;24.00;58.10
40808;DHT22;26523;52.504;13.498;2022-07-06T13:15:15;24.00;57.10
40808;DHT22;26523;52.504;13.498;2022-07-06T13:17:41;23.90;57.20
40808;DHT22;26523;52.504;13.498;2022-07-06T13:20:09;23.80;57.10
40808;DHT22;26523;52.504;13.498;2022-07-06T13:22:36;23.90;57.40
40808;DHT22;26523;52.504;13.498;2022-07-06T13:25:04;24.00;57.20
40808;DHT22;26523;52.504;13.498;2022-07-06T13:27:30;24.10;57.40
40808;DHT22;26523;52.504;13.498;2022-07-06T13:29:56;24.20;57.40
40808;DHT22;26523;52.504;13.498;2022-07-06T13:32:22;24.30;57.10
40808;DHT22;26523;52.504;13.498;2022-07-06T13:34:48;24.10;57.50
40808;DHT22;26523;52.504;13.498;2022-07-06T13:37:13;24.10;56.90
40808;DHT22;26523;52.504;13.498;2022-07-06T13:39:39;24.10;57.10
40808;DHT22;26523;52.504;13.498;2022-07-06T13:42:05;24.30;56.70
40808;DHT22;26523;52.504;13.498;2022-07-06T13:44:30;24.20;56.00
40808;DHT22;26523;52.504;13.498;2022-07-06T13:46:56;24.20;56.50
40808;DHT22;26523;52.504;13.498;2022-07-06T13:49:22;24.10;56.30
40808;DHT22;26523;52.504;13.498;2022-07-06T13:51:47;24.10;56.30
40808;DHT22;26523;52.504;13.498;2022-07-06T13:54:13;24.10;56.10
40808;DHT22;26523;52.504;13.498;2022-07-06T13:56:39;24.20;56.00
40808;DHT22;26523;52.504;13.498;2022-07-06T13:59:06;24.20;55.60
40808;DHT22;26523;52.504;13.498;2022-07-06T14:01:31;24.10;55.90
40808;DHT22;26523;52.504;13.498;2022-07-06T14:03:57;23.90;55.50
40808;DHT22;26523;52.504;13.498;2022-07-06T14:06:23;23.90;55.10
40808;DHT22;26523;52.504;13.498;2022-07-06T14:08:49;23.70;55.30
40808;DHT22;26523;52.504;13.498;2022-07-06T14:11:14;23.60;55.20
40808;DHT22;26523;52.504;13.498;2022-07-06T14:13:40;23.50;55.20
40808;DHT22;26523;52.504;13.498;2022-07-06T14:16:07;23.50;55.50
40808;DHT22;26523;52.504;13.498;2022-07-06T14:18:33;23.70;55.60
40808;DHT22;26523;52.504;13.498;2022-07-06T14:20:59;23.70;55.60
40808;DHT22;26523;52.504;13.498;2022-07-06T14:23:26;23.70;55.70
40808;DHT22;26523;52.504;13.498;2022-07-06T14:25:51;23.70;55.40
40808;DHT22;26523;52.504;13.498;2022-07-06T14:28:18;23.60;54.80
40808;DHT22;26523;52.504;13.498;2022-07-06T14:30:44;23.40;54.80
40808;DHT22;26523;52.504;13.498;2022-07-06T14:33:11;23.30;55.20
40808;DHT22;26523;52.504;13.498;2022-07-06T14:35:43;23.30;55.70
40808;DHT22;26523;52.504;13.498;2022-07-06T14:38:10;23.20;56.10
40808;DHT22;26523;52.504;13.498;2022-07-06T14:40:36;23.10;56.30
40808;DHT22;26523;52.504;13.498;2022-07-06T14:43:02;23.00;56.90
40808;DHT22;26523;52.504;13.498;2022-07-06T14:45:28;23.10;57.00
40808;DHT22;26523;52.504;13.498;2022-07-06T14:47:54;23.00;57.30
40808;DHT22;26523;52.504;13.498;2022-07-06T14:50:20;22.90;57.50
40808;DHT22;26523;52.504;13.498;2022-07-06T14:52:48;22.90;58.10
40808;DHT22;26523;52.504;13.498;2022-07-06T14:55:15;23.00;58.10
40808;DHT22;26523;52.504;13.498;2022-07-06T14:57:41;22.90;58.20
40808;DHT22;26523;52.504;13.498;2022-07-06T15:00:07;22.90;58.80
40808;DHT22;26523;52.504;13.498;2022-07-06T15:02:33;22.80;58.80
40808;DHT22;26523;52.504;13.498;2022-07-06T15:04:59;22.80;58.90
40808;DHT22;26523;52.504;13.498;2022-07-06T15:07:26;22.90;58.80
40808;DHT22;26523;52.504;13.498;2022-07-06T15:09:51;22.80;58.80
40808;DHT22;26523;52.504;13.498;2022-07-06T15:12:17;22.80;59.20
40808;DHT22;26523;52.504;13.498;2022-07-06T15:14:42;22.70;59.60
40808;DHT22;26523;52.504;13.498;2022-07-06T15:17:08;22.40;59.70
40808;DHT22;26523;52.504;13.498;2022-07-06T15:19:34;22.40;60.10
40808;DHT22;26523;52.504;13.498;2022-07-06T15:22:00;22.30;60.40
40808;DHT22;26523;52.504;13.498;2022-07-06T15:24:26;22.10;60.90